Norwood, New Jersey
Current Conditions -  °F | °C
As of 12:51 AM on Thursday 23 Oct 2014 (Local Time) from KTEB Reporting Station
Overcast Overcast  
Wind Chill: 53°   Ceiling: 2800
Heat Index: 53°   Visibility: 10mi
Dew Point: 45°   Wind: 17mph
Humidity: 74%   Direction: 360°N
Pressure: 29.72"   Gusts: 28mph
Location:  41°N, 73.96°W
Report Text: KTEB 230451Z 36015G24KT 10SM SCT023 BKN028 OVC047 12/07 A2972 RMK AO2 PK WND 35026/0414 RAE29 SLP065 P0000 T01170072 401390106 $
Loading
Personal Weather Stations






























Interactive Weather Map
Tropical Storm Tracking
New forecast layout! Learn more

10-Day Weather Forecast

Advertisements
Track Severe Weather on mobile